sensor_id;sensor_type;location;lat;lon;timestamp;temperature;humidity
13850;DHT22;6995;52.618;13.488;2023-05-07T00:01:51;10.00;99.90
13850;DHT22;6995;52.618;13.488;2023-05-07T00:04:17;10.00;99.90
13850;DHT22;6995;52.618;13.488;2023-05-07T00:06:57;10.00;99.90
13850;DHT22;6995;52.618;13.488;2023-05-07T00:09:23;9.90;99.90
13850;DHT22;6995;52.618;13.488;2023-05-07T00:11:48;9.90;99.90
13850;DHT22;6995;52.618;13.488;2023-05-07T00:14:14;10.00;99.90
13850;DHT22;6995;52.618;13.488;2023-05-07T00:16:39;10.00;99.90
13850;DHT22;6995;52.618;13.488;2023-05-07T00:19:05;9.90;99.90
13850;DHT22;6995;52.618;13.488;2023-05-07T00:21:30;9.90;99.90
13850;DHT22;6995;52.618;13.488;2023-05-07T00:23:57;9.90;99.90
13850;DHT22;6995;52.618;13.488;2023-05-07T00:26:23;9.90;99.90
13850;DHT22;6995;52.618;13.488;2023-05-07T00:28:48;9.80;99.90
13850;DHT22;6995;52.618;13.488;2023-05-07T00:31:14;9.80;99.90
13850;DHT22;6995;52.618;13.488;2023-05-07T00:33:39;9.70;99.90
13850;DHT22;6995;52.618;13.488;2023-05-07T00:36:05;9.70;99.90
13850;DHT22;6995;52.618;13.488;2023-05-07T00:38:31;9.60;99.90
13850;DHT22;6995;52.618;13.488;2023-05-07T00:40:57;9.60;99.90
13850;DHT22;6995;52.618;13.488;2023-05-07T00:43:22;9.70;99.90
13850;DHT22;6995;52.618;13.488;2023-05-07T00:45:48;9.70;99.90
13850;DHT22;6995;52.618;13.488;2023-05-07T00:48:15;9.70;99.90
13850;DHT22;6995;52.618;13.488;2023-05-07T00:50:42;9.70;99.90
13850;DHT22;6995;52.618;13.488;2023-05-07T00:53:07;9.70;99.90
13850;DHT22;6995;52.618;13.488;2023-05-07T00:55:33;9.70;99.90
13850;DHT22;6995;52.618;13.488;2023-05-07T00:58:00;9.70;99.90
13850;DHT22;6995;52.618;13.488;2023-05-07T01:00:26;9.70;99.90
13850;DHT22;6995;52.618;13.488;2023-05-07T01:02:52;9.70;99.90
13850;DHT22;6995;52.618;13.488;2023-05-07T01:05:19;9.70;99.90
13850;DHT22;6995;52.618;13.488;2023-05-07T01:07:46;9.70;99.90
13850;DHT22;6995;52.618;13.488;2023-05-07T01:10:12;9.70;99.90
13850;DHT22;6995;52.618;13.488;2023-05-07T01:12:39;9.80;99.90
13850;DHT22;6995;52.618;13.488;2023-05-07T01:15:06;9.70;99.90
13850;DHT22;6995;52.618;13.488;2023-05-07T01:17:40;9.80;99.90
13850;DHT22;6995;52.618;13.488;2023-05-07T01:20:07;9.80;99.90
13850;DHT22;6995;52.618;13.488;2023-05-07T01:22:37;9.80;99.90
13850;DHT22;6995;52.618;13.488;2023-05-07T01:25:06;9.80;99.90
13850;DHT22;6995;52.618;13.488;2023-05-07T01:27:35;9.80;99.90
13850;DHT22;6995;52.618;13.488;2023-05-07T01:30:03;9.80;99.90
13850;DHT22;6995;52.618;13.488;2023-05-07T01:32:36;9.80;99.90
13850;DHT22;6995;52.618;13.488;2023-05-07T01:35:04;9.80;99.90
13850;DHT22;6995;52.618;13.488;2023-05-07T01:37:31;9.80;99.90
13850;DHT22;6995;52.618;13.488;2023-05-07T01:39:57;9.80;99.90
13850;DHT22;6995;52.618;13.488;2023-05-07T01:42:23;9.70;99.90
13850;DHT22;6995;52.618;13.488;2023-05-07T01:44:48;9.80;99.90
13850;DHT22;6995;52.618;13.488;2023-05-07T01:47:14;9.80;99.90
13850;DHT22;6995;52.618;13.488;2023-05-07T01:49:42;9.80;99.90
13850;DHT22;6995;52.618;13.488;2023-05-07T01:52:09;9.80;99.90
13850;DHT22;6995;52.618;13.488;2023-05-07T01:54:35;9.80;99.90
13850;DHT22;6995;52.618;13.488;2023-05-07T01:57:01;9.70;99.90
13850;DHT22;6995;52.618;13.488;2023-05-07T01:59:26;9.70;99.90
13850;DHT22;6995;52.618;13.488;2023-05-07T02:01:52;9.70;99.90
13850;DHT22;6995;52.618;13.488;2023-05-07T02:04:17;9.70;99.90
13850;DHT22;6995;52.618;13.488;2023-05-07T02:06:43;9.80;99.90
13850;DHT22;6995;52.618;13.488;2023-05-07T02:09:09;9.80;99.90
13850;DHT22;6995;52.618;13.488;2023-05-07T02:11:34;9.80;99.90
13850;DHT22;6995;52.618;13.488;2023-05-07T02:14:00;9.70;99.90
13850;DHT22;6995;52.618;13.488;2023-05-07T02:16:26;9.70;99.90
13850;DHT22;6995;52.618;13.488;2023-05-07T02:18:51;9.60;99.90
13850;DHT22;6995;52.618;13.488;2023-05-07T02:21:17;9.60;99.90
13850;DHT22;6995;52.618;13.488;2023-05-07T02:23:44;9.60;99.90
13850;DHT22;6995;52.618;13.488;2023-05-07T02:26:10;9.70;99.90
13850;DHT22;6995;52.618;13.488;2023-05-07T02:28:36;9.70;99.90
13850;DHT22;6995;52.618;13.488;2023-05-07T02:31:05;9.70;99.90
13850;DHT22;6995;52.618;13.488;2023-05-07T02:33:30;9.70;99.90
13850;DHT22;6995;52.618;13.488;2023-05-07T02:35:56;9.70;99.90
13850;DHT22;6995;52.618;13.488;2023-05-07T02:38:22;9.70;99.90
13850;DHT22;6995;52.618;13.488;2023-05-07T02:40:51;9.70;99.90
13850;DHT22;6995;52.618;13.488;2023-05-07T02:43:16;9.70;99.90
13850;DHT22;6995;52.618;13.488;2023-05-07T02:45:42;9.70;99.90
13850;DHT22;6995;52.618;13.488;2023-05-07T02:48:08;9.70;99.90
13850;DHT22;6995;52.618;13.488;2023-05-07T02:50:34;9.70;99.90
13850;DHT22;6995;52.618;13.488;2023-05-07T02:53:00;9.70;99.90
13850;DHT22;6995;52.618;13.488;2023-05-07T02:55:25;9.70;99.90
13850;DHT22;6995;52.618;13.488;2023-05-07T02:57:51;9.70;99.90
13850;DHT22;6995;52.618;13.488;2023-05-07T03:00:18;9.70;99.90
13850;DHT22;6995;52.618;13.488;2023-05-07T03:02:44;9.70;99.90
13850;DHT22;6995;52.618;13.488;2023-05-07T03:05:10;9.70;99.90
13850;DHT22;6995;52.618;13.488;2023-05-07T03:07:37;9.70;99.90
13850;DHT22;6995;52.618;13.488;2023-05-07T03:10:04;9.70;99.90
13850;DHT22;6995;52.618;13.488;2023-05-07T03:12:30;9.70;99.90
13850;DHT22;6995;52.618;13.488;2023-05-07T03:14:56;9.60;99.90
13850;DHT22;6995;52.618;13.488;2023-05-07T03:17:22;9.60;99.90
13850;DHT22;6995;52.618;13.488;2023-05-07T03:19:47;9.70;99.90
13850;DHT22;6995;52.618;13.488;2023-05-07T03:22:13;9.70;99.90
13850;DHT22;6995;52.618;13.488;2023-05-07T03:24:39;9.70;99.90
13850;DHT22;6995;52.618;13.488;2023-05-07T03:27:05;9.70;99.90
13850;DHT22;6995;52.618;13.488;2023-05-07T03:29:30;9.70;99.90
13850;DHT22;6995;52.618;13.488;2023-05-07T03:31:56;9.60;99.90
13850;DHT22;6995;52.618;13.488;2023-05-07T03:34:22;9.60;99.90
13850;DHT22;6995;52.618;13.488;2023-05-07T03:36:48;9.60;99.90
13850;DHT22;6995;52.618;13.488;2023-05-07T03:39:14;9.60;99.90
13850;DHT22;6995;52.618;13.488;2023-05-07T03:41:40;9.60;99.90
13850;DHT22;6995;52.618;13.488;2023-05-07T03:44:05;9.60;99.90
13850;DHT22;6995;52.618;13.488;2023-05-07T03:46:31;9.60;99.90
13850;DHT22;6995;52.618;13.488;2023-05-07T03:49:00;9.50;99.90
13850;DHT22;6995;52.618;13.488;2023-05-07T03:51:26;9.60;99.90
13850;DHT22;6995;52.618;13.488;2023-05-07T03:53:52;9.60;99.90
13850;DHT22;6995;52.618;13.488;2023-05-07T03:56:22;9.60;99.90
13850;DHT22;6995;52.618;13.488;2023-05-07T03:58:48;9.60;99.90
13850;DHT22;6995;52.618;13.488;2023-05-07T04:01:13;9.60;99.90
13850;DHT22;6995;52.618;13.488;2023-05-07T04:03:56;9.70;99.90
13850;DHT22;6995;52.618;13.488;2023-05-07T04:06:21;9.60;99.90
13850;DHT22;6995;52.618;13.488;2023-05-07T04:08:47;9.60;99.90
13850;DHT22;6995;52.618;13.488;2023-05-07T04:11:13;9.60;99.90
13850;DHT22;6995;52.618;13.488;2023-05-07T04:13:38;9.70;99.90
13850;DHT22;6995;52.618;13.488;2023-05-07T04:16:05;9.70;99.90
13850;DHT22;6995;52.618;13.488;2023-05-07T04:18:31;9.80;99.90
13850;DHT22;6995;52.618;13.488;2023-05-07T04:20:56;9.70;99.90
13850;DHT22;6995;52.618;13.488;2023-05-07T04:23:22;9.80;99.90
13850;DHT22;6995;52.618;13.488;2023-05-07T04:25:47;9.90;99.90
13850;DHT22;6995;52.618;13.488;2023-05-07T04:28:13;9.90;99.90
13850;DHT22;6995;52.618;13.488;2023-05-07T04:30:39;9.90;99.90
13850;DHT22;6995;52.618;13.488;2023-05-07T04:33:05;9.80;99.90
13850;DHT22;6995;52.618;13.488;2023-05-07T04:35:32;9.80;99.90
13850;DHT22;6995;52.618;13.488;2023-05-07T04:37:57;9.70;99.90
13850;DHT22;6995;52.618;13.488;2023-05-07T04:40:23;9.70;99.90
13850;DHT22;6995;52.618;13.488;2023-05-07T04:42:48;9.70;99.90
13850;DHT22;6995;52.618;13.488;2023-05-07T04:45:14;9.70;99.90
13850;DHT22;6995;52.618;13.488;2023-05-07T04:47:40;9.70;99.90
13850;DHT22;6995;52.618;13.488;2023-05-07T04:50:22;9.80;99.90
13850;DHT22;6995;52.618;13.488;2023-05-07T04:52:49;9.80;99.90
13850;DHT22;6995;52.618;13.488;2023-05-07T04:55:15;9.90;99.90
13850;DHT22;6995;52.618;13.488;2023-05-07T04:57:41;9.90;99.90
13850;DHT22;6995;52.618;13.488;2023-05-07T05:00:07;10.00;99.90
13850;DHT22;6995;52.618;13.488;2023-05-07T05:02:34;9.90;99.90
13850;DHT22;6995;52.618;13.488;2023-05-07T05:05:00;9.90;99.90
13850;DHT22;6995;52.618;13.488;2023-05-07T05:07:27;9.90;99.90
13850;DHT22;6995;52.618;13.488;2023-05-07T05:09:53;10.00;99.90
13850;DHT22;6995;52.618;13.488;2023-05-07T05:12:19;10.00;99.90
13850;DHT22;6995;52.618;13.488;2023-05-07T05:14:45;10.00;99.90
13850;DHT22;6995;52.618;13.488;2023-05-07T05:17:10;10.20;99.90
13850;DHT22;6995;52.618;13.488;2023-05-07T05:19:36;10.20;99.90
13850;DHT22;6995;52.618;13.488;2023-05-07T05:22:02;10.20;99.90
13850;DHT22;6995;52.618;13.488;2023-05-07T05:24:29;10.30;99.90
13850;DHT22;6995;52.618;13.488;2023-05-07T05:26:55;10.40;99.90
13850;DHT22;6995;52.618;13.488;2023-05-07T05:29:21;10.50;99.90
13850;DHT22;6995;52.618;13.488;2023-05-07T05:35:04;10.60;99.90
13850;DHT22;6995;52.618;13.488;2023-05-07T05:37:57;10.90;99.90
13850;DHT22;6995;52.618;13.488;2023-05-07T05:40:22;11.10;99.90
13850;DHT22;6995;52.618;13.488;2023-05-07T05:42:55;11.10;99.90
13850;DHT22;6995;52.618;13.488;2023-05-07T05:45:21;11.00;99.90
13850;DHT22;6995;52.618;13.488;2023-05-07T05:47:47;11.10;99.90
13850;DHT22;6995;52.618;13.488;2023-05-07T05:50:12;11.10;99.90
13850;DHT22;6995;52.618;13.488;2023-05-07T05:52:38;11.20;99.90
13850;DHT22;6995;52.618;13.488;2023-05-07T05:55:04;11.30;99.90
13850;DHT22;6995;52.618;13.488;2023-05-07T05:57:30;11.30;99.90
13850;DHT22;6995;52.618;13.488;2023-05-07T05:59:56;11.30;99.90
13850;DHT22;6995;52.618;13.488;2023-05-07T06:02:21;11.40;99.90
13850;DHT22;6995;52.618;13.488;2023-05-07T06:04:47;11.20;99.90
13850;DHT22;6995;52.618;13.488;2023-05-07T06:07:13;11.40;99.90
13850;DHT22;6995;52.618;13.488;2023-05-07T06:09:38;11.50;99.90
13850;DHT22;6995;52.618;13.488;2023-05-07T06:12:04;11.60;99.90
13850;DHT22;6995;52.618;13.488;2023-05-07T06:14:30;11.70;99.90
13850;DHT22;6995;52.618;13.488;2023-05-07T06:16:56;11.80;99.90
13850;DHT22;6995;52.618;13.488;2023-05-07T06:19:22;11.70;99.90
13850;DHT22;6995;52.618;13.488;2023-05-07T06:21:49;11.90;99.90
13850;DHT22;6995;52.618;13.488;2023-05-07T06:24:15;12.20;99.90
13850;DHT22;6995;52.618;13.488;2023-05-07T06:26:40;12.20;99.90
13850;DHT22;6995;52.618;13.488;2023-05-07T06:29:06;12.10;99.90
13850;DHT22;6995;52.618;13.488;2023-05-07T06:31:43;12.10;99.90
13850;DHT22;6995;52.618;13.488;2023-05-07T06:34:09;12.30;99.90
13850;DHT22;6995;52.618;13.488;2023-05-07T06:36:35;12.30;99.90
13850;DHT22;6995;52.618;13.488;2023-05-07T06:39:01;12.10;99.90
13850;DHT22;6995;52.618;13.488;2023-05-07T06:41:30;12.00;99.90
13850;DHT22;6995;52.618;13.488;2023-05-07T06:43:55;12.10;99.90
13850;DHT22;6995;52.618;13.488;2023-05-07T06:46:24;12.20;99.90
13850;DHT22;6995;52.618;13.488;2023-05-07T06:48:50;12.30;99.90
13850;DHT22;6995;52.618;13.488;2023-05-07T06:51:28;12.40;99.90
13850;DHT22;6995;52.618;13.488;2023-05-07T06:53:54;12.40;99.90
13850;DHT22;6995;52.618;13.488;2023-05-07T06:56:22;12.70;99.90
13850;DHT22;6995;52.618;13.488;2023-05-07T06:58:48;12.80;99.90
13850;DHT22;6995;52.618;13.488;2023-05-07T07:01:14;12.60;99.90
13850;DHT22;6995;52.618;13.488;2023-05-07T07:03:40;12.30;99.90
13850;DHT22;6995;52.618;13.488;2023-05-07T07:09:00;12.70;99.90
13850;DHT22;6995;52.618;13.488;2023-05-07T07:11:25;12.70;99.90
13850;DHT22;6995;52.618;13.488;2023-05-07T07:13:51;12.70;99.90
13850;DHT22;6995;52.618;13.488;2023-05-07T07:16:17;12.50;99.90
13850;DHT22;6995;52.618;13.488;2023-05-07T07:18:42;12.60;99.90
13850;DHT22;6995;52.618;13.488;2023-05-07T07:21:08;12.60;99.90
13850;DHT22;6995;52.618;13.488;2023-05-07T07:23:33;12.70;99.90
13850;DHT22;6995;52.618;13.488;2023-05-07T07:25:59;12.80;99.90
13850;DHT22;6995;52.618;13.488;2023-05-07T07:28:25;13.10;99.90
13850;DHT22;6995;52.618;13.488;2023-05-07T07:30:51;13.20;99.90
13850;DHT22;6995;52.618;13.488;2023-05-07T07:33:16;13.40;99.90
13850;DHT22;6995;52.618;13.488;2023-05-07T07:35:42;13.40;99.90
13850;DHT22;6995;52.618;13.488;2023-05-07T07:38:08;13.30;99.90
13850;DHT22;6995;52.618;13.488;2023-05-07T07:40:37;13.50;99.90
13850;DHT22;6995;52.618;13.488;2023-05-07T07:43:02;13.50;99.90
13850;DHT22;6995;52.618;13.488;2023-05-07T07:45:28;13.60;99.90
13850;DHT22;6995;52.618;13.488;2023-05-07T07:47:54;13.60;99.90
13850;DHT22;6995;52.618;13.488;2023-05-07T07:50:20;13.60;99.90
13850;DHT22;6995;52.618;13.488;2023-05-07T07:52:46;13.70;99.90
13850;DHT22;6995;52.618;13.488;2023-05-07T07:55:12;13.90;99.90
13850;DHT22;6995;52.618;13.488;2023-05-07T07:57:37;14.00;99.90
13850;DHT22;6995;52.618;13.488;2023-05-07T08:00:04;14.10;99.90
13850;DHT22;6995;52.618;13.488;2023-05-07T08:02:31;14.00;99.90
13850;DHT22;6995;52.618;13.488;2023-05-07T08:04:57;13.70;99.90
13850;DHT22;6995;52.618;13.488;2023-05-07T08:07:23;13.70;99.90
13850;DHT22;6995;52.618;13.488;2023-05-07T08:09:48;13.80;99.90
13850;DHT22;6995;52.618;13.488;2023-05-07T08:12:15;13.90;99.90
13850;DHT22;6995;52.618;13.488;2023-05-07T08:14:40;13.90;99.90
13850;DHT22;6995;52.618;13.488;2023-05-07T08:17:06;14.00;99.90
13850;DHT22;6995;52.618;13.488;2023-05-07T08:19:32;14.10;99.90
13850;DHT22;6995;52.618;13.488;2023-05-07T08:21:58;14.10;99.90
13850;DHT22;6995;52.618;13.488;2023-05-07T08:24:23;13.80;99.90
13850;DHT22;6995;52.618;13.488;2023-05-07T08:26:49;13.80;99.90
13850;DHT22;6995;52.618;13.488;2023-05-07T08:29:15;13.80;99.90
13850;DHT22;6995;52.618;13.488;2023-05-07T08:31:41;13.80;99.90
13850;DHT22;6995;52.618;13.488;2023-05-07T08:34:07;13.90;99.90
13850;DHT22;6995;52.618;13.488;2023-05-07T08:36:32;13.90;99.90
13850;DHT22;6995;52.618;13.488;2023-05-07T08:38:59;13.90;99.90
13850;DHT22;6995;52.618;13.488;2023-05-07T08:41:25;14.00;99.90
13850;DHT22;6995;52.618;13.488;2023-05-07T08:43:51;14.10;99.90
13850;DHT22;6995;52.618;13.488;2023-05-07T08:46:18;14.20;99.90
13850;DHT22;6995;52.618;13.488;2023-05-07T08:48:45;14.30;99.90
13850;DHT22;6995;52.618;13.488;2023-05-07T08:51:18;14.30;99.90
13850;DHT22;6995;52.618;13.488;2023-05-07T08:53:45;14.30;99.90
13850;DHT22;6995;52.618;13.488;2023-05-07T08:56:11;14.30;99.90
13850;DHT22;6995;52.618;13.488;2023-05-07T08:58:37;14.50;99.90
13850;DHT22;6995;52.618;13.488;2023-05-07T09:01:08;14.70;99.90
13850;DHT22;6995;52.618;13.488;2023-05-07T09:03:35;14.70;99.90
13850;DHT22;6995;52.618;13.488;2023-05-07T09:06:00;14.70;99.90
13850;DHT22;6995;52.618;13.488;2023-05-07T09:08:27;14.90;99.90
13850;DHT22;6995;52.618;13.488;2023-05-07T09:10:53;15.20;99.90
13850;DHT22;6995;52.618;13.488;2023-05-07T09:13:19;15.30;99.90
13850;DHT22;6995;52.618;13.488;2023-05-07T09:15:45;15.20;99.90
13850;DHT22;6995;52.618;13.488;2023-05-07T09:18:12;15.00;99.90
13850;DHT22;6995;52.618;13.488;2023-05-07T09:20:38;15.10;99.90
13850;DHT22;6995;52.618;13.488;2023-05-07T09:23:04;15.20;99.90
13850;DHT22;6995;52.618;13.488;2023-05-07T09:25:31;15.40;99.90
13850;DHT22;6995;52.618;13.488;2023-05-07T09:27:57;15.50;99.90
13850;DHT22;6995;52.618;13.488;2023-05-07T09:30:28;15.50;99.90
13850;DHT22;6995;52.618;13.488;2023-05-07T09:32:54;15.40;99.90
13850;DHT22;6995;52.618;13.488;2023-05-07T09:35:19;15.20;99.90
13850;DHT22;6995;52.618;13.488;2023-05-07T09:37:47;15.40;99.90
13850;DHT22;6995;52.618;13.488;2023-05-07T09:40:29;15.50;99.90
13850;DHT22;6995;52.618;13.488;2023-05-07T09:42:55;15.40;99.90
13850;DHT22;6995;52.618;13.488;2023-05-07T09:45:30;15.40;99.90
13850;DHT22;6995;52.618;13.488;2023-05-07T09:47:58;15.50;99.90
13850;DHT22;6995;52.618;13.488;2023-05-07T09:50:28;15.30;99.90
13850;DHT22;6995;52.618;13.488;2023-05-07T09:52:55;15.30;99.90
13850;DHT22;6995;52.618;13.488;2023-05-07T09:55:22;15.50;99.90
13850;DHT22;6995;52.618;13.488;2023-05-07T09:57:50;15.40;99.90
13850;DHT22;6995;52.618;13.488;2023-05-07T10:00:18;15.20;99.90
13850;DHT22;6995;52.618;13.488;2023-05-07T10:02:46;15.30;99.90
13850;DHT22;6995;52.618;13.488;2023-05-07T10:05:14;15.40;99.90
13850;DHT22;6995;52.618;13.488;2023-05-07T10:07:41;15.60;99.90
13850;DHT22;6995;52.618;13.488;2023-05-07T10:10:07;15.60;99.90
13850;DHT22;6995;52.618;13.488;2023-05-07T10:12:33;15.50;99.90
13850;DHT22;6995;52.618;13.488;2023-05-07T10:15:06;15.60;99.90
13850;DHT22;6995;52.618;13.488;2023-05-07T10:17:36;15.80;99.90
13850;DHT22;6995;52.618;13.488;2023-05-07T10:20:03;16.00;99.90
13850;DHT22;6995;52.618;13.488;2023-05-07T10:22:36;16.20;99.90
13850;DHT22;6995;52.618;13.488;2023-05-07T10:25:02;16.10;99.90
13850;DHT22;6995;52.618;13.488;2023-05-07T10:27:29;16.30;99.90
13850;DHT22;6995;52.618;13.488;2023-05-07T10:32:51;17.00;99.90
13850;DHT22;6995;52.618;13.488;2023-05-07T10:35:24;17.30;99.90
13850;DHT22;6995;52.618;13.488;2023-05-07T10:37:51;17.00;99.90
13850;DHT22;6995;52.618;13.488;2023-05-07T10:40:17;16.90;99.90
13850;DHT22;6995;52.618;13.488;2023-05-07T10:43:05;16.80;99.90
13850;DHT22;6995;52.618;13.488;2023-05-07T10:45:31;16.80;99.90
13850;DHT22;6995;52.618;13.488;2023-05-07T10:48:13;16.80;99.90
13850;DHT22;6995;52.618;13.488;2023-05-07T10:50:43;16.80;99.90
13850;DHT22;6995;52.618;13.488;2023-05-07T10:56:23;16.50;99.90
13850;DHT22;6995;52.618;13.488;2023-05-07T10:58:35;16.80;99.90
13850;DHT22;6995;52.618;13.488;2023-05-07T11:01:03;16.50;99.90
13850;DHT22;6995;52.618;13.488;2023-05-07T11:03:29;16.80;99.90
13850;DHT22;6995;52.618;13.488;2023-05-07T11:06:15;16.80;99.90
13850;DHT22;6995;52.618;13.488;2023-05-07T11:08:56;16.90;99.50
13850;DHT22;6995;52.618;13.488;2023-05-07T11:11:48;16.90;99.90
13850;DHT22;6995;52.618;13.488;2023-05-07T11:17:08;17.10;98.80
13850;DHT22;6995;52.618;13.488;2023-05-07T11:19:54;17.40;97.00
13850;DHT22;6995;52.618;13.488;2023-05-07T11:25:06;17.70;92.80
13850;DHT22;6995;52.618;13.488;2023-05-07T11:27:32;17.50;92.70
13850;DHT22;6995;52.618;13.488;2023-05-07T11:29:59;17.60;92.40
13850;DHT22;6995;52.618;13.488;2023-05-07T11:32:31;17.90;88.20
13850;DHT22;6995;52.618;13.488;2023-05-07T11:34:58;18.30;88.30
13850;DHT22;6995;52.618;13.488;2023-05-07T11:37:25;18.30;83.90
13850;DHT22;6995;52.618;13.488;2023-05-07T11:40:05;18.10;85.30
13850;DHT22;6995;52.618;13.488;2023-05-07T11:42:36;18.40;81.10
13850;DHT22;6995;52.618;13.488;2023-05-07T11:45:04;18.60;75.70
13850;DHT22;6995;52.618;13.488;2023-05-07T11:47:31;18.70;76.30
13850;DHT22;6995;52.618;13.488;2023-05-07T11:49:57;19.00;77.50
13850;DHT22;6995;52.618;13.488;2023-05-07T11:52:27;19.50;74.20
13850;DHT22;6995;52.618;13.488;2023-05-07T11:54:55;19.70;73.70
13850;DHT22;6995;52.618;13.488;2023-05-07T11:57:22;20.20;69.20
13850;DHT22;6995;52.618;13.488;2023-05-07T11:59:48;19.80;67.30
13850;DHT22;6995;52.618;13.488;2023-05-07T12:02:21;19.30;69.90
13850;DHT22;6995;52.618;13.488;2023-05-07T12:04:46;19.20;69.30
13850;DHT22;6995;52.618;13.488;2023-05-07T12:07:13;18.90;69.80
13850;DHT22;6995;52.618;13.488;2023-05-07T12:09:40;18.40;69.10
13850;DHT22;6995;52.618;13.488;2023-05-07T12:12:06;18.00;73.20
13850;DHT22;6995;52.618;13.488;2023-05-07T12:14:32;18.00;75.60
13850;DHT22;6995;52.618;13.488;2023-05-07T12:16:59;18.70;73.40
13850;DHT22;6995;52.618;13.488;2023-05-07T12:19:29;19.00;72.20
13850;DHT22;6995;52.618;13.488;2023-05-07T12:21:55;19.40;67.50
13850;DHT22;6995;52.618;13.488;2023-05-07T12:24:21;19.00;64.90
13850;DHT22;6995;52.618;13.488;2023-05-07T12:26:48;19.30;96.40
13850;DHT22;6995;52.618;13.488;2023-05-07T12:29:13;19.60;64.50
13850;DHT22;6995;52.618;13.488;2023-05-07T12:31:42;20.20;61.40
13850;DHT22;6995;52.618;13.488;2023-05-07T12:34:10;19.80;62.80
13850;DHT22;6995;52.618;13.488;2023-05-07T12:36:48;20.30;60.60
13850;DHT22;6995;52.618;13.488;2023-05-07T12:39:13;20.30;58.40
13850;DHT22;6995;52.618;13.488;2023-05-07T12:41:56;20.60;58.80
13850;DHT22;6995;52.618;13.488;2023-05-07T12:44:23;21.50;54.30
13850;DHT22;6995;52.618;13.488;2023-05-07T12:46:49;22.20;49.50
13850;DHT22;6995;52.618;13.488;2023-05-07T12:49:15;23.30;45.30
13850;DHT22;6995;52.618;13.488;2023-05-07T12:51:41;23.90;43.40
13850;DHT22;6995;52.618;13.488;2023-05-07T12:54:07;24.30;37.60
13850;DHT22;6995;52.618;13.488;2023-05-07T12:56:35;24.50;39.00
13850;DHT22;6995;52.618;13.488;2023-05-07T12:59:02;24.80;34.20
13850;DHT22;6995;52.618;13.488;2023-05-07T13:01:34;23.80;34.10
13850;DHT22;6995;52.618;13.488;2023-05-07T13:04:05;23.20;36.40
13850;DHT22;6995;52.618;13.488;2023-05-07T13:06:31;21.70;40.30
13850;DHT22;6995;52.618;13.488;2023-05-07T13:08:57;21.40;41.10
13850;DHT22;6995;52.618;13.488;2023-05-07T13:11:22;21.00;42.80
13850;DHT22;6995;52.618;13.488;2023-05-07T13:13:48;20.80;45.70
13850;DHT22;6995;52.618;13.488;2023-05-07T13:16:14;21.20;41.70
13850;DHT22;6995;52.618;13.488;2023-05-07T13:18:40;21.10;41.70
13850;DHT22;6995;52.618;13.488;2023-05-07T13:21:06;21.60;39.50
13850;DHT22;6995;52.618;13.488;2023-05-07T13:23:31;22.30;38.20
13850;DHT22;6995;52.618;13.488;2023-05-07T13:25:57;23.40;33.30
13850;DHT22;6995;52.618;13.488;2023-05-07T13:28:24;24.50;31.70
13850;DHT22;6995;52.618;13.488;2023-05-07T13:30:51;25.40;26.20
13850;DHT22;6995;52.618;13.488;2023-05-07T13:33:22;24.80;26.20
13850;DHT22;6995;52.618;13.488;2023-05-07T13:35:49;25.20;26.70
13850;DHT22;6995;52.618;13.488;2023-05-07T13:38:15;25.20;24.10
13850;DHT22;6995;52.618;13.488;2023-05-07T13:40:41;25.20;24.60
13850;DHT22;6995;52.618;13.488;2023-05-07T13:43:07;25.10;20.30
13850;DHT22;6995;52.618;13.488;2023-05-07T13:45:33;25.30;18.90
13850;DHT22;6995;52.618;13.488;2023-05-07T13:47:58;25.60;22.30
13850;DHT22;6995;52.618;13.488;2023-05-07T13:50:24;25.10;20.00
13850;DHT22;6995;52.618;13.488;2023-05-07T13:52:52;23.40;24.80
13850;DHT22;6995;52.618;13.488;2023-05-07T13:55:18;22.40;27.80
13850;DHT22;6995;52.618;13.488;2023-05-07T13:57:44;21.80;30.40
13850;DHT22;6995;52.618;13.488;2023-05-07T14:00:10;21.10;33.30
13850;DHT22;6995;52.618;13.488;2023-05-07T14:02:36;20.50;36.10
13850;DHT22;6995;52.618;13.488;2023-05-07T14:05:02;20.20;36.70
13850;DHT22;6995;52.618;13.488;2023-05-07T14:07:28;20.00;66.40
13850;DHT22;6995;52.618;13.488;2023-05-07T14:09:54;19.60;39.80
13850;DHT22;6995;52.618;13.488;2023-05-07T14:12:20;19.90;36.10
13850;DHT22;6995;52.618;13.488;2023-05-07T14:14:45;20.80;35.70
13850;DHT22;6995;52.618;13.488;2023-05-07T14:17:12;22.20;31.80
13850;DHT22;6995;52.618;13.488;2023-05-07T14:19:38;23.30;26.70
13850;DHT22;6995;52.618;13.488;2023-05-07T14:22:03;24.10;24.10
13850;DHT22;6995;52.618;13.488;2023-05-07T14:24:29;24.40;22.70
13850;DHT22;6995;52.618;13.488;2023-05-07T14:26:57;24.30;20.30
13850;DHT22;6995;52.618;13.488;2023-05-07T14:29:22;23.40;22.80
13850;DHT22;6995;52.618;13.488;2023-05-07T14:31:48;22.70;25.60
13850;DHT22;6995;52.618;13.488;2023-05-07T14:34:14;21.90;27.90
13850;DHT22;6995;52.618;13.488;2023-05-07T14:36:39;20.90;31.00
13850;DHT22;6995;52.618;13.488;2023-05-07T14:39:09;21.20;33.90
13850;DHT22;6995;52.618;13.488;2023-05-07T14:41:35;23.20;53.30
13850;DHT22;6995;52.618;13.488;2023-05-07T14:44:01;23.80;19.60
13850;DHT22;6995;52.618;13.488;2023-05-07T14:46:29;24.20;18.00
13850;DHT22;6995;52.618;13.488;2023-05-07T14:48:56;23.00;21.50
13850;DHT22;6995;52.618;13.488;2023-05-07T14:51:21;22.80;23.20
13850;DHT22;6995;52.618;13.488;2023-05-07T14:53:47;22.90;22.90
13850;DHT22;6995;52.618;13.488;2023-05-07T14:56:13;22.20;23.70
13850;DHT22;6995;52.618;13.488;2023-05-07T14:58:38;22.80;21.60
13850;DHT22;6995;52.618;13.488;2023-05-07T15:01:04;23.50;20.80
13850;DHT22;6995;52.618;13.488;2023-05-07T15:03:30;23.30;44.70
13850;DHT22;6995;52.618;13.488;2023-05-07T15:05:55;21.40;23.30
13850;DHT22;6995;52.618;13.488;2023-05-07T15:08:21;20.70;27.40
13850;DHT22;6995;52.618;13.488;2023-05-07T15:10:47;22.10;23.60
13850;DHT22;6995;52.618;13.488;2023-05-07T15:13:13;23.40;21.50
13850;DHT22;6995;52.618;13.488;2023-05-07T15:15:39;24.00;18.10
13850;DHT22;6995;52.618;13.488;2023-05-07T15:18:05;23.30;17.90
13850;DHT22;6995;52.618;13.488;2023-05-07T15:20:31;23.80;17.90
13850;DHT22;6995;52.618;13.488;2023-05-07T15:22:56;23.90;15.50
13850;DHT22;6995;52.618;13.488;2023-05-07T15:25:23;23.10;30.60
13850;DHT22;6995;52.618;13.488;2023-05-07T15:27:48;21.80;22.30
13850;DHT22;6995;52.618;13.488;2023-05-07T15:30:14;21.00;24.60
13850;DHT22;6995;52.618;13.488;2023-05-07T15:32:48;21.30;24.20
13850;DHT22;6995;52.618;13.488;2023-05-07T15:35:17;22.30;22.40
13850;DHT22;6995;52.618;13.488;2023-05-07T15:37:49;23.30;18.20
13850;DHT22;6995;52.618;13.488;2023-05-07T15:40:15;24.40;13.60
13850;DHT22;6995;52.618;13.488;2023-05-07T15:42:41;25.30;10.90
13850;DHT22;6995;52.618;13.488;2023-05-07T15:45:08;25.30;9.40
13850;DHT22;6995;52.618;13.488;2023-05-07T15:47:37;26.10;7.40
13850;DHT22;6995;52.618;13.488;2023-05-07T15:50:03;26.00;7.30
13850;DHT22;6995;52.618;13.488;2023-05-07T15:52:29;26.50;4.90